Time;durP1;ratioP1;P1;durP2;ratioP2;P2;SDS_P1;SDS_P2;PMS_P1;PMS_P2;Temp;Humidity;BMP_temperature;BMP_pressure;BME280_temperature;BME280_humidity;BME280_pressure;Samples;Min_cycle;Max_cycle;Signal;HPM_P1;HPM_P2
2023/04/29 00:01:57;;;;;;;64.05;37.80;;;;;;;;;;5047218;28;20217;-69
2023/04/29 00:04:24;;;;;;;64.68;37.78;;;;;;;;;;5045968;28;20185;-69
2023/04/29 00:06:49;;;;;;;62.40;37.42;;;;;;;;;;5044405;28;20607;-69
2023/04/29 00:09:15;;;;;;;62.53;37.70;;;;;;;;;;5039349;28;20224;-69
2023/04/29 00:11:40;;;;;;;59.47;37.28;;;;;;;;;;5042630;28;20200;-69
2023/04/29 00:14:05;;;;;;;63.70;36.50;;;;;;;;;;5037760;28;20623;-69
2023/04/29 00:16:31;;;;;;;62.42;38.25;;;;;;;;;;5043522;28;20209;-70
2023/04/29 00:18:58;;;;;;;59.47;37.80;;;;;;;;;;5048258;28;20193;-69
2023/04/29 00:21:26;;;;;;;66.22;39.17;;;;;;;;;;5041475;28;20198;-69
2023/04/29 00:23:51;;;;;;;62.33;36.97;;;;;;;;;;5033376;28;20256;-69
2023/04/29 00:26:17;;;;;;;59.10;37.38;;;;;;;;;;5038053;28;20307;-69
2023/04/29 00:28:42;;;;;;;64.18;36.22;;;;;;;;;;5041860;28;20202;-69
2023/04/29 00:31:08;;;;;;;68.75;38.38;;;;;;;;;;5037603;28;20245;-69
2023/04/29 00:33:33;;;;;;;59.90;35.95;;;;;;;;;;5047342;28;20218;-70
2023/04/29 00:35:58;;;;;;;62.70;37.63;;;;;;;;;;5049026;28;20193;-69
2023/04/29 00:38:24;;;;;;;62.72;37.17;;;;;;;;;;5047755;28;20194;-70
2023/04/29 00:40:50;;;;;;;59.20;34.72;;;;;;;;;;5049385;28;20259;-69
2023/04/29 00:43:15;;;;;;;58.88;34.78;;;;;;;;;;5035361;28;20699;-70
2023/04/29 00:45:40;;;;;;;57.45;35.38;;;;;;;;;;5047726;28;20315;-70
2023/04/29 00:48:06;;;;;;;56.75;35.20;;;;;;;;;;5045654;28;20487;-70
2023/04/29 00:50:32;;;;;;;58.05;34.42;;;;;;;;;;5044401;28;20182;-70
2023/04/29 00:52:57;;;;;;;52.78;33.83;;;;;;;;;;5046745;28;20757;-69
2023/04/29 00:55:25;;;;;;;50.63;32.75;;;;;;;;;;5035311;28;20261;-70
2023/04/29 00:57:51;;;;;;;52.03;33.72;;;;;;;;;;5044463;28;20197;-69
2023/04/29 01:00:17;;;;;;;55.95;34.33;;;;;;;;;;5045941;28;20208;-69
2023/04/29 01:02:44;;;;;;;53.72;32.45;;;;;;;;;;5049405;28;20233;-69
2023/04/29 01:05:10;;;;;;;52.45;31.42;;;;;;;;;;5048352;28;20189;-68
2023/04/29 01:07:50;;;;;;;52.88;32.10;;;;;;;;;;5045680;28;20246;-69
2023/04/29 01:10:24;;;;;;;49.40;31.38;;;;;;;;;;5055944;28;20198;-69
2023/04/29 01:13:16;;;;;;;48.28;29.70;;;;;;;;;;5038219;28;20464;-69
2023/04/29 01:16:02;;;;;;;51.97;30.55;;;;;;;;;;5046448;28;20613;-69
2023/04/29 01:18:53;;;;;;;47.70;30.60;;;;;;;;;;5047925;28;20197;-69
2023/04/29 01:21:20;;;;;;;49.88;29.42;;;;;;;;;;5040151;28;20193;-69
2023/04/29 01:23:45;;;;;;;43.90;28.45;;;;;;;;;;5034170;28;20275;-69
2023/04/29 01:26:11;;;;;;;45.90;28.85;;;;;;;;;;5038986;28;20216;-70
2023/04/29 01:29:18;;;;;;;48.67;28.83;;;;;;;;;;5042342;28;20362;-70
2023/04/29 01:31:50;;;;;;;46.08;28.65;;;;;;;;;;5039944;28;20546;-70
2023/04/29 01:34:31;;;;;;;45.67;28.35;;;;;;;;;;5048704;28;20182;-69
2023/04/29 01:37:00;;;;;;;46.95;29.45;;;;;;;;;;5035499;28;20202;-70
2023/04/29 01:39:33;;;;;;;44.58;28.52;;;;;;;;;;5030435;28;20185;-69
2023/04/29 01:42:12;;;;;;;48.15;29.92;;;;;;;;;;5033793;28;20586;-70
2023/04/29 01:44:39;;;;;;;43.58;27.63;;;;;;;;;;5045305;28;20237;-69
2023/04/29 01:47:05;;;;;;;47.53;29.63;;;;;;;;;;5038230;28;20224;-69
2023/04/29 01:49:35;;;;;;;53.42;31.13;;;;;;;;;;5046200;28;20320;-69
2023/04/29 01:52:00;;;;;;;49.67;31.35;;;;;;;;;;5037023;28;20755;-69
2023/04/29 01:54:26;;;;;;;50.75;31.27;;;;;;;;;;5041244;28;20277;-70
2023/04/29 01:56:51;;;;;;;48.20;31.17;;;;;;;;;;5039563;28;20224;-70
2023/04/29 01:59:17;;;;;;;51.33;32.25;;;;;;;;;;5047855;28;20192;-70
2023/04/29 02:01:42;;;;;;;55.03;31.55;;;;;;;;;;5043308;28;20213;-69
2023/04/29 02:04:08;;;;;;;49.10;30.58;;;;;;;;;;5041810;28;20611;-68
2023/04/29 02:06:33;;;;;;;49.15;30.25;;;;;;;;;;5044765;28;20692;-70
2023/04/29 02:08:58;;;;;;;48.47;29.88;;;;;;;;;;5029737;28;20233;-69
2023/04/29 02:11:24;;;;;;;45.65;28.70;;;;;;;;;;5039913;28;20230;-69
2023/04/29 02:13:49;;;;;;;47.80;29.25;;;;;;;;;;5043928;28;20189;-69
2023/04/29 02:16:15;;;;;;;43.72;28.70;;;;;;;;;;5045857;28;20201;-70
2023/04/29 02:18:41;;;;;;;46.42;28.40;;;;;;;;;;5043391;28;20186;-69
2023/04/29 02:21:07;;;;;;;44.05;27.65;;;;;;;;;;5038793;28;20197;-69
2023/04/29 02:23:33;;;;;;;43.60;28.20;;;;;;;;;;5037242;28;20499;-69
2023/04/29 02:25:59;;;;;;;45.58;28.63;;;;;;;;;;5042780;28;20231;-69
2023/04/29 02:28:24;;;;;;;41.42;26.40;;;;;;;;;;5035076;28;20601;-69
2023/04/29 02:30:50;;;;;;;46.88;28.40;;;;;;;;;;5043873;28;20190;-69
2023/04/29 02:33:17;;;;;;;43.38;26.40;;;;;;;;;;5045022;28;20348;-69
2023/04/29 02:35:43;;;;;;;39.22;25.98;;;;;;;;;;5036757;28;20628;-69
2023/04/29 02:38:09;;;;;;;39.53;25.63;;;;;;;;;;5041937;28;20201;-69
2023/04/29 02:40:39;;;;;;;36.50;25.55;;;;;;;;;;5044503;28;20185;-69
2023/04/29 02:43:04;;;;;;;41.13;25.50;;;;;;;;;;5044277;28;20268;-70
2023/04/29 02:45:30;;;;;;;37.13;24.88;;;;;;;;;;5035635;28;20355;-71
2023/04/29 02:47:55;;;;;;;37.55;24.15;;;;;;;;;;5045547;28;20200;-70
2023/04/29 02:50:20;;;;;;;40.42;23.80;;;;;;;;;;5036048;28;20190;-69
2023/04/29 02:52:46;;;;;;;38.55;25.35;;;;;;;;;;5038842;28;20528;-69
2023/04/29 02:55:11;;;;;;;39.20;24.77;;;;;;;;;;5043331;28;20197;-69
2023/04/29 02:57:37;;;;;;;37.92;25.27;;;;;;;;;;5037954;28;20190;-70
2023/04/29 03:00:03;;;;;;;45.83;24.02;;;;;;;;;;5031417;28;20204;-70
2023/04/29 03:02:28;;;;;;;39.95;25.55;;;;;;;;;;5047945;28;20655;-70
2023/04/29 03:04:54;;;;;;;41.92;25.40;;;;;;;;;;5044631;28;20272;-70
2023/04/29 03:07:19;;;;;;;36.63;24.17;;;;;;;;;;5046541;28;20546;-70
2023/04/29 03:09:45;;;;;;;38.20;25.35;;;;;;;;;;5044322;28;20228;-70
2023/04/29 03:12:10;;;;;;;36.90;24.20;;;;;;;;;;5033957;28;20317;-70
2023/04/29 03:14:36;;;;;;;39.78;25.17;;;;;;;;;;5039706;28;20198;-70
2023/04/29 03:17:01;;;;;;;44.60;25.23;;;;;;;;;;5044133;28;20304;-70
2023/04/29 03:19:26;;;;;;;40.33;25.08;;;;;;;;;;5047681;28;20189;-70
2023/04/29 03:21:52;;;;;;;42.75;25.15;;;;;;;;;;5042502;28;20213;-70
2023/04/29 03:24:17;;;;;;;38.92;24.58;;;;;;;;;;5045288;28;20730;-70
2023/04/29 03:26:43;;;;;;;36.08;24.75;;;;;;;;;;5050528;28;20181;-70
2023/04/29 03:29:08;;;;;;;39.53;25.05;;;;;;;;;;5041292;28;20210;-70
2023/04/29 03:31:34;;;;;;;39.92;24.88;;;;;;;;;;5045586;28;20189;-70
2023/04/29 03:33:59;;;;;;;40.33;25.90;;;;;;;;;;5045411;28;20193;-70
2023/04/29 03:36:24;;;;;;;42.83;25.88;;;;;;;;;;5037653;28;20194;-70
2023/04/29 03:38:50;;;;;;;40.00;26.17;;;;;;;;;;5040871;28;20648;-70
2023/04/29 03:41:15;;;;;;;40.13;26.27;;;;;;;;;;5049169;28;20197;-69
2023/04/29 03:43:43;;;;;;;41.17;26.42;;;;;;;;;;5047345;28;20182;-69
2023/04/29 03:46:08;;;;;;;43.50;25.15;;;;;;;;;;5047553;28;20233;-70
2023/04/29 03:48:34;;;;;;;44.78;26.55;;;;;;;;;;5045472;28;20557;-70
2023/04/29 03:51:00;;;;;;;44.40;27.17;;;;;;;;;;5048370;28;20209;-70
2023/04/29 03:53:25;;;;;;;42.72;26.00;;;;;;;;;;5041620;28;20190;-70
2023/04/29 03:55:50;;;;;;;45.17;26.52;;;;;;;;;;5049441;28;20246;-70
2023/04/29 03:58:16;;;;;;;39.58;26.08;;;;;;;;;;5049678;28;20197;-70
2023/04/29 04:00:41;;;;;;;44.33;26.70;;;;;;;;;;5042725;28;20210;-69
2023/04/29 04:03:07;;;;;;;53.28;29.25;;;;;;;;;;5044892;28;20331;-70
2023/04/29 04:05:33;;;;;;;49.47;27.58;;;;;;;;;;5040836;28;20189;-70
2023/04/29 04:07:59;;;;;;;50.47;28.27;;;;;;;;;;5039080;28;20226;-69
2023/04/29 04:10:25;;;;;;;50.20;28.08;;;;;;;;;;5042486;28;20201;-70
2023/04/29 04:12:50;;;;;;;47.35;28.00;;;;;;;;;;5048417;28;20186;-70
2023/04/29 04:15:16;;;;;;;48.80;26.98;;;;;;;;;;5044979;28;20198;-69
2023/04/29 04:17:42;;;;;;;45.42;28.95;;;;;;;;;;5041044;28;20194;-70
2023/04/29 04:20:08;;;;;;;45.38;27.10;;;;;;;;;;5048104;28;20272;-70
2023/04/29 04:22:33;;;;;;;50.15;28.10;;;;;;;;;;5047747;28;20653;-69
2023/04/29 04:24:58;;;;;;;43.33;25.98;;;;;;;;;;5049831;28;20213;-70
2023/04/29 04:27:24;;;;;;;43.72;27.15;;;;;;;;;;5040014;28;20649;-70
2023/04/29 04:29:53;;;;;;;46.58;26.60;;;;;;;;;;5045061;28;20217;-70
2023/04/29 04:32:20;;;;;;;45.22;26.15;;;;;;;;;;5045945;28;20300;-70
2023/04/29 04:34:47;;;;;;;43.15;26.15;;;;;;;;;;5049486;28;20382;-70
2023/04/29 04:37:12;;;;;;;44.33;26.33;;;;;;;;;;5045964;28;20267;-70
2023/04/29 04:39:38;;;;;;;44.20;27.83;;;;;;;;;;5043134;28;20642;-69
2023/04/29 04:42:03;;;;;;;46.42;26.55;;;;;;;;;;5045511;28;20220;-70
2023/04/29 04:44:29;;;;;;;47.47;26.35;;;;;;;;;;5048456;28;20835;-69
2023/04/29 04:46:55;;;;;;;44.45;26.48;;;;;;;;;;5046776;28;20190;-70
2023/04/29 04:49:23;;;;;;;45.42;25.95;;;;;;;;;;5049382;28;20723;-70
2023/04/29 04:51:49;;;;;;;40.35;26.35;;;;;;;;;;5032797;28;20199;-69
2023/04/29 04:54:14;;;;;;;41.03;24.60;;;;;;;;;;5049699;28;20589;-70
2023/04/29 04:56:39;;;;;;;42.70;25.13;;;;;;;;;;5045851;28;20189;-69
2023/04/29 04:59:05;;;;;;;45.28;26.48;;;;;;;;;;5049940;28;20193;-69
2023/04/29 05:01:30;;;;;;;46.08;24.92;;;;;;;;;;5044988;28;20240;-69
2023/04/29 05:03:56;;;;;;;40.28;25.08;;;;;;;;;;5042908;28;20186;-70
2023/04/29 05:06:22;;;;;;;47.08;25.90;;;;;;;;;;5035451;28;20185;-69
2023/04/29 05:08:47;;;;;;;44.78;23.15;;;;;;;;;;5038592;28;20288;-70
2023/04/29 05:11:31;;;;;;;40.10;24.58;;;;;;;;;;5048856;28;20193;-69
2023/04/29 05:13:56;;;;;;;40.67;24.17;;;;;;;;;;5027587;28;20190;-69
2023/04/29 05:16:22;;;;;;;42.95;24.25;;;;;;;;;;5040535;28;20190;-70
2023/04/29 05:18:47;;;;;;;39.05;23.73;;;;;;;;;;5045743;28;20182;-70
2023/04/29 05:21:13;;;;;;;43.55;24.88;;;;;;;;;;5038274;28;20198;-70
2023/04/29 05:23:38;;;;;;;39.75;23.83;;;;;;;;;;5040220;28;20665;-70
2023/04/29 05:26:03;;;;;;;41.75;23.02;;;;;;;;;;5040364;28;20217;-71
2023/04/29 05:28:29;;;;;;;44.20;24.73;;;;;;;;;;5045695;28;20213;-71
2023/04/29 05:30:54;;;;;;;47.10;24.95;;;;;;;;;;5039332;28;20324;-70
2023/04/29 05:33:19;;;;;;;42.10;23.77;;;;;;;;;;5044175;28;20193;-70
2023/04/29 05:35:45;;;;;;;41.67;25.30;;;;;;;;;;5045033;28;20606;-70
2023/04/29 05:38:10;;;;;;;42.28;24.15;;;;;;;;;;5043887;28;20596;-70
2023/04/29 05:40:37;;;;;;;39.45;22.55;;;;;;;;;;5040858;28;20225;-68
2023/04/29 05:43:02;;;;;;;42.28;22.38;;;;;;;;;;5040269;28;20564;-71
2023/04/29 05:45:27;;;;;;;38.95;22.35;;;;;;;;;;5034794;28;20225;-75
2023/04/29 05:47:53;;;;;;;38.05;21.88;;;;;;;;;;5042720;28;20659;-72
2023/04/29 05:50:18;;;;;;;38.00;22.52;;;;;;;;;;5049162;28;20276;-70
2023/04/29 05:52:44;;;;;;;42.60;23.15;;;;;;;;;;5045794;28;20197;-71
2023/04/29 05:55:09;;;;;;;39.95;24.10;;;;;;;;;;5042922;28;20557;-69
2023/04/29 05:57:34;;;;;;;34.25;21.95;;;;;;;;;;5040186;28;20216;-70
2023/04/29 06:00:00;;;;;;;35.97;22.02;;;;;;;;;;5042167;28;20612;-70
2023/04/29 06:02:26;;;;;;;37.13;23.23;;;;;;;;;;5042547;28;20189;-71
2023/04/29 06:04:51;;;;;;;38.45;21.70;;;;;;;;;;5042905;28;20240;-71
2023/04/29 06:07:17;;;;;;;36.70;21.55;;;;;;;;;;5037565;28;20198;-71
2023/04/29 06:09:43;;;;;;;37.08;21.98;;;;;;;;;;5041558;28;20209;-71
2023/04/29 06:12:09;;;;;;;37.22;21.52;;;;;;;;;;5043036;28;20186;-70
2023/04/29 06:14:34;;;;;;;40.20;21.73;;;;;;;;;;5034475;28;20339;-71
2023/04/29 06:17:00;;;;;;;34.67;21.73;;;;;;;;;;5039878;28;20688;-70
2023/04/29 06:19:26;;;;;;;44.55;21.88;;;;;;;;;;5042896;28;20184;-71
2023/04/29 06:21:51;;;;;;;38.60;22.20;;;;;;;;;;5044135;28;20573;-70
2023/04/29 06:24:17;;;;;;;33.03;20.33;;;;;;;;;;5045186;28;20243;-70
2023/04/29 06:26:42;;;;;;;34.67;20.27;;;;;;;;;;5044137;28;20208;-70
2023/04/29 06:29:08;;;;;;;35.25;21.38;;;;;;;;;;5040323;28;20572;-71
2023/04/29 06:31:33;;;;;;;38.60;20.48;;;;;;;;;;5038821;28;20266;-71
2023/04/29 06:33:59;;;;;;;35.45;20.60;;;;;;;;;;5045864;28;20581;-70
2023/04/29 06:36:26;;;;;;;33.28;19.48;;;;;;;;;;5036417;28;20243;-71
2023/04/29 06:38:51;;;;;;;31.80;19.27;;;;;;;;;;5040746;28;20185;-71
2023/04/29 06:41:16;;;;;;;33.60;18.70;;;;;;;;;;5043884;28;20189;-72
2023/04/29 06:43:42;;;;;;;31.88;20.77;;;;;;;;;;5045139;28;20193;-71
2023/04/29 06:46:08;;;;;;;32.08;18.23;;;;;;;;;;5046185;28;20598;-70
2023/04/29 06:48:34;;;;;;;31.88;18.65;;;;;;;;;;5038336;28;20217;-71
2023/04/29 06:50:59;;;;;;;35.80;19.15;;;;;;;;;;5041595;28;20197;-71
2023/04/29 06:53:25;;;;;;;33.35;19.42;;;;;;;;;;5049084;28;20182;-71
2023/04/29 06:55:50;;;;;;;32.60;18.67;;;;;;;;;;5042580;28;20719;-70
2023/04/29 06:58:17;;;;;;;33.00;18.27;;;;;;;;;;5043476;28;20174;-70
2023/04/29 07:00:44;;;;;;;30.30;18.58;;;;;;;;;;5053932;28;20215;-70
2023/04/29 07:03:10;;;;;;;25.08;17.25;;;;;;;;;;5052867;28;20200;-71
2023/04/29 07:05:38;;;;;;;31.52;17.35;;;;;;;;;;5048812;28;20181;-71
2023/04/29 07:08:04;;;;;;;29.13;16.52;;;;;;;;;;5047698;28;20196;-71
2023/04/29 07:10:29;;;;;;;27.13;15.90;;;;;;;;;;5050441;28;20281;-71
2023/04/29 07:12:55;;;;;;;31.63;17.35;;;;;;;;;;5041930;28;20575;-71
2023/04/29 07:15:21;;;;;;;28.25;16.83;;;;;;;;;;5062791;28;20534;-71
2023/04/29 07:17:46;;;;;;;26.48;16.55;;;;;;;;;;5063631;28;20196;-71
2023/04/29 07:20:12;;;;;;;29.50;16.77;;;;;;;;;;5049007;28;20186;-71
2023/04/29 07:22:38;;;;;;;28.75;15.70;;;;;;;;;;5043524;28;20193;-72
2023/04/29 07:25:03;;;;;;;26.30;15.50;;;;;;;;;;5040436;28;20236;-71
2023/04/29 07:27:29;;;;;;;27.83;15.75;;;;;;;;;;5047265;28;20246;-72
2023/04/29 07:29:54;;;;;;;24.85;15.07;;;;;;;;;;5039589;28;20214;-70
2023/04/29 07:32:19;;;;;;;26.65;14.93;;;;;;;;;;5048503;28;20192;-71
2023/04/29 07:34:46;;;;;;;25.25;15.07;;;;;;;;;;5045161;28;20193;-71
2023/04/29 07:37:12;;;;;;;25.13;14.38;;;;;;;;;;5046200;28;20189;-71
2023/04/29 07:39:37;;;;;;;28.17;14.15;;;;;;;;;;5041419;28;20607;-72
2023/04/29 07:42:03;;;;;;;23.13;14.00;;;;;;;;;;5044939;28;20193;-71
2023/04/29 07:44:28;;;;;;;24.02;14.45;;;;;;;;;;5044278;28;20529;-71
2023/04/29 07:46:54;;;;;;;24.70;13.75;;;;;;;;;;5045956;28;20190;-71
2023/04/29 07:49:19;;;;;;;22.80;13.57;;;;;;;;;;5044963;28;20220;-71
2023/04/29 07:51:45;;;;;;;20.77;13.68;;;;;;;;;;5040511;28;20193;-70
2023/04/29 07:54:10;;;;;;;24.13;13.52;;;;;;;;;;5045308;28;20267;-71
2023/04/29 07:56:35;;;;;;;25.52;13.43;;;;;;;;;;5043534;28;20320;-70
2023/04/29 07:59:01;;;;;;;20.88;13.52;;;;;;;;;;5052304;28;20551;-70
2023/04/29 08:01:27;;;;;;;24.08;13.77;;;;;;;;;;5047234;28;20216;-70
2023/04/29 08:03:53;;;;;;;21.15;13.38;;;;;;;;;;5046401;28;20193;-71
2023/04/29 08:06:20;;;;;;;27.63;13.48;;;;;;;;;;5036064;28;20184;-70
2023/04/29 08:08:46;;;;;;;21.92;13.48;;;;;;;;;;5033326;28;20214;-71
2023/04/29 08:11:16;;;;;;;24.92;13.75;;;;;;;;;;5039049;28;20303;-71
2023/04/29 08:13:42;;;;;;;23.73;13.65;;;;;;;;;;5017579;28;20541;-71
2023/04/29 08:16:08;;;;;;;21.23;12.85;;;;;;;;;;5037778;28;20194;-74
2023/04/29 08:18:33;;;;;;;20.13;13.57;;;;;;;;;;5041128;28;20182;-71
2023/04/29 08:20:59;;;;;;;22.02;12.38;;;;;;;;;;5034296;28;20197;-70
2023/04/29 08:23:25;;;;;;;22.65;12.75;;;;;;;;;;5046382;28;20193;-71
2023/04/29 08:25:51;;;;;;;21.10;12.48;;;;;;;;;;5042413;28;20276;-71
2023/04/29 08:28:16;;;;;;;18.75;12.32;;;;;;;;;;5034142;28;20217;-70
2023/04/29 08:30:42;;;;;;;21.63;12.05;;;;;;;;;;5045214;28;20561;-71
2023/04/29 08:33:08;;;;;;;17.95;12.02;;;;;;;;;;5038311;28;20510;-70
2023/04/29 08:35:36;;;;;;;19.08;11.93;;;;;;;;;;5044090;28;20190;-71
2023/04/29 08:38:03;;;;;;;16.38;10.68;;;;;;;;;;5038352;28;20201;-71
2023/04/29 08:40:29;;;;;;;18.48;10.90;;;;;;;;;;5035036;28;20263;-71
2023/04/29 08:42:56;;;;;;;16.13;10.88;;;;;;;;;;5037328;28;20189;-71
2023/04/29 08:45:23;;;;;;;21.15;11.85;;;;;;;;;;5035165;28;20586;-71
2023/04/29 08:47:50;;;;;;;19.33;11.23;;;;;;;;;;5037574;28;20209;-71
2023/04/29 08:50:16;;;;;;;18.98;10.75;;;;;;;;;;5049347;28;20528;-71
2023/04/29 08:52:41;;;;;;;19.83;11.02;;;;;;;;;;5034233;28;20327;-71
2023/04/29 08:55:07;;;;;;;17.48;10.57;;;;;;;;;;5032081;28;20273;-71
2023/04/29 08:57:38;;;;;;;20.65;10.93;;;;;;;;;;5030034;28;20622;-71
2023/04/29 09:00:07;;;;;;;20.02;11.02;;;;;;;;;;5032413;28;20493;-70
2023/04/29 09:02:36;;;;;;;18.90;11.00;;;;;;;;;;5043199;28;20546;-70
2023/04/29 09:05:10;;;;;;;18.17;10.43;;;;;;;;;;5045257;28;20608;-70
2023/04/29 09:07:40;;;;;;;15.85;9.60;;;;;;;;;;5029286;28;20439;-70
2023/04/29 09:10:06;;;;;;;15.32;9.90;;;;;;;;;;5031520;28;20210;-70
2023/04/29 09:12:31;;;;;;;14.27;9.38;;;;;;;;;;5038294;28;20198;-71
2023/04/29 09:14:57;;;;;;;17.15;9.40;;;;;;;;;;5043000;28;20200;-70
2023/04/29 09:17:45;;;;;;;16.20;9.32;;;;;;;;;;5037223;28;20241;-71
2023/04/29 09:20:37;;;;;;;14.05;9.80;;;;;;;;;;5035437;28;20721;-69
2023/04/29 09:23:03;;;;;;;15.38;9.27;;;;;;;;;;5033919;28;20379;-70
2023/04/29 09:25:30;;;;;;;15.35;9.48;;;;;;;;;;5035670;28;20261;-74
2023/04/29 09:27:56;;;;;;;15.48;9.60;;;;;;;;;;5046904;28;20208;-71
2023/04/29 09:30:22;;;;;;;17.83;10.13;;;;;;;;;;5036853;28;20194;-72
2023/04/29 09:33:07;;;;;;;15.77;10.05;;;;;;;;;;5033834;28;20192;-72
2023/04/29 09:35:33;;;;;;;15.07;10.32;;;;;;;;;;5049459;28;20251;-71
2023/04/29 09:38:17;;;;;;;13.75;9.55;;;;;;;;;;5032931;28;20217;-70
2023/04/29 09:40:43;;;;;;;15.02;10.02;;;;;;;;;;5032936;28;20189;-72
2023/04/29 09:43:14;;;;;;;16.08;9.80;;;;;;;;;;5046485;28;20187;-71
2023/04/29 09:45:45;;;;;;;17.80;9.98;;;;;;;;;;5040653;28;20324;-73
2023/04/29 09:48:11;;;;;;;15.57;9.63;;;;;;;;;;5028246;28;20277;-73
2023/04/29 09:50:38;;;;;;;15.60;10.00;;;;;;;;;;5037349;28;20642;-73
2023/04/29 09:53:08;;;;;;;14.80;9.45;;;;;;;;;;5033625;28;20220;-70
2023/04/29 09:55:35;;;;;;;13.63;9.23;;;;;;;;;;5034968;28;20225;-71
2023/04/29 09:58:00;;;;;;;16.33;9.80;;;;;;;;;;5028506;28;20642;-70
2023/04/29 10:00:31;;;;;;;16.52;8.93;;;;;;;;;;5034553;28;20242;-70
2023/04/29 10:02:59;;;;;;;13.55;8.98;;;;;;;;;;5043600;28;20197;-70
2023/04/29 10:05:28;;;;;;;12.85;8.52;;;;;;;;;;5032969;28;20193;-76
2023/04/29 10:07:55;;;;;;;11.00;8.80;;;;;;;;;;5031916;28;20239;-71
2023/04/29 10:10:23;;;;;;;16.25;8.77;;;;;;;;;;5045152;28;20573;-72
2023/04/29 10:12:51;;;;;;;12.23;8.63;;;;;;;;;;5032922;28;20201;-70
2023/04/29 10:15:37;;;;;;;15.05;8.30;;;;;;;;;;5042848;28;20189;-70
2023/04/29 10:18:19;;;;;;;13.07;8.35;;;;;;;;;;5033446;28;20190;-71
2023/04/29 10:20:47;;;;;;;14.15;8.18;;;;;;;;;;5029538;28;20198;-71
2023/04/29 10:23:14;;;;;;;13.68;8.40;;;;;;;;;;5043340;28;20528;-70
2023/04/29 10:25:43;;;;;;;13.32;8.32;;;;;;;;;;5037896;28;20220;-69
2023/04/29 10:28:18;;;;;;;12.55;8.85;;;;;;;;;;5032632;28;20294;-70
2023/04/29 10:30:49;;;;;;;11.68;7.95;;;;;;;;;;5038005;28;20189;-71
2023/04/29 10:33:15;;;;;;;9.82;7.30;;;;;;;;;;5046227;28;20185;-70
2023/04/29 10:35:43;;;;;;;10.07;7.30;;;;;;;;;;5043770;28;20197;-70
2023/04/29 10:38:23;;;;;;;11.00;5.63;;;;;;;;;;5045145;28;20710;-70
2023/04/29 10:40:50;;;;;;;10.18;5.60;;;;;;;;;;5047212;28;20624;-70
2023/04/29 10:43:25;;;;;;;10.45;6.50;;;;;;;;;;5028044;28;20213;-70
2023/04/29 10:46:16;;;;;;;8.85;6.45;;;;;;;;;;5039169;28;20713;-74
2023/04/29 10:48:48;;;;;;;12.20;7.15;;;;;;;;;;5027833;28;20214;-71
2023/04/29 10:51:31;;;;;;;10.52;6.65;;;;;;;;;;5027773;28;20190;-71
2023/04/29 10:54:02;;;;;;;11.80;7.07;;;;;;;;;;5041504;28;20196;-70
2023/04/29 10:56:54;;;;;;;7.55;5.95;;;;;;;;;;5030865;28;20229;-71
2023/04/29 10:59:21;;;;;;;9.15;5.63;;;;;;;;;;5037115;28;20182;-71
2023/04/29 11:01:51;;;;;;;9.10;5.85;;;;;;;;;;5038852;28;20209;-71
2023/04/29 11:04:20;;;;;;;8.65;6.00;;;;;;;;;;5029239;28;20204;-69
2023/04/29 11:06:57;;;;;;;7.88;6.05;;;;;;;;;;5026576;28;20352;-70
2023/04/29 11:09:23;;;;;;;7.70;6.05;;;;;;;;;;5044336;28;20585;-71
2023/04/29 11:11:52;;;;;;;9.07;6.13;;;;;;;;;;5044922;28;20182;-70
2023/04/29 11:14:25;;;;;;;7.82;5.32;;;;;;;;;;5040931;28;20197;-70
2023/04/29 11:16:52;;;;;;;8.40;5.47;;;;;;;;;;5034819;28;20600;-71
2023/04/29 11:19:18;;;;;;;9.23;6.32;;;;;;;;;;5024761;28;20268;-72
2023/04/29 11:21:45;;;;;;;6.60;4.80;;;;;;;;;;5043039;28;20273;-72
2023/04/29 11:24:11;;;;;;;8.95;5.38;;;;;;;;;;5046115;28;20212;-72
2023/04/29 11:26:37;;;;;;;8.63;5.80;;;;;;;;;;5046262;28;20207;-72
2023/04/29 11:29:04;;;;;;;9.90;5.95;;;;;;;;;;5037963;28;20214;-70
2023/04/29 11:31:30;;;;;;;7.28;5.30;;;;;;;;;;5034297;28;20244;-70
2023/04/29 11:33:56;;;;;;;7.75;4.95;;;;;;;;;;5043257;28;20649;-70
2023/04/29 11:36:22;;;;;;;8.50;5.32;;;;;;;;;;5052257;28;20201;-71
2023/04/29 11:38:47;;;;;;;6.10;5.00;;;;;;;;;;5044395;28;20185;-70
2023/04/29 11:41:14;;;;;;;5.22;3.83;;;;;;;;;;5034981;28;20263;-70
2023/04/29 11:43:39;;;;;;;7.55;3.75;;;;;;;;;;5051218;28;20560;-71
2023/04/29 11:46:12;;;;;;;9.45;4.97;;;;;;;;;;5039506;28;20229;-70
2023/04/29 11:48:46;;;;;;;9.00;5.93;;;;;;;;;;5040060;28;20295;-71
2023/04/29 11:51:11;;;;;;;7.45;5.43;;;;;;;;;;5042753;28;20272;-71
2023/04/29 11:53:37;;;;;;;6.75;5.25;;;;;;;;;;5046798;28;20359;-71
2023/04/29 11:56:02;;;;;;;7.35;5.13;;;;;;;;;;5045873;28;20198;-71
2023/04/29 11:58:27;;;;;;;8.38;5.15;;;;;;;;;;5046932;28;20190;-70
2023/04/29 12:00:53;;;;;;;6.22;4.70;;;;;;;;;;5041607;28;20224;-71
2023/04/29 12:03:20;;;;;;;6.78;5.00;;;;;;;;;;5041753;28;20569;-71
2023/04/29 12:05:47;;;;;;;6.03;4.50;;;;;;;;;;5039611;28;20694;-71
2023/04/29 12:08:13;;;;;;;6.53;4.20;;;;;;;;;;5035039;28;20216;-70
2023/04/29 12:10:39;;;;;;;5.40;3.97;;;;;;;;;;5043437;28;20218;-71
2023/04/29 12:13:04;;;;;;;10.35;5.20;;;;;;;;;;5046274;28;20625;-71
2023/04/29 12:15:31;;;;;;;7.78;4.75;;;;;;;;;;5046298;28;20190;-70
2023/04/29 12:17:56;;;;;;;8.00;5.13;;;;;;;;;;5037972;28;20190;-70
2023/04/29 12:20:22;;;;;;;6.07;4.35;;;;;;;;;;5044724;28;20182;-70
2023/04/29 12:22:47;;;;;;;6.95;4.57;;;;;;;;;;4347526;28;10021531;-70
2023/04/29 12:25:15;;;;;;;8.80;5.25;;;;;;;;;;5043209;28;20208;-70
2023/04/29 12:27:41;;;;;;;8.63;5.60;;;;;;;;;;5043142;28;20702;-70
2023/04/29 12:30:08;;;;;;;7.13;5.50;;;;;;;;;;5038630;28;20263;-70
2023/04/29 12:32:33;;;;;;;8.73;5.07;;;;;;;;;;5040060;28;20185;-70
2023/04/29 12:34:59;;;;;;;6.10;4.38;;;;;;;;;;5035646;28;20215;-70
2023/04/29 12:37:25;;;;;;;6.07;4.22;;;;;;;;;;5035945;28;20228;-71
2023/04/29 12:39:51;;;;;;;5.30;4.38;;;;;;;;;;5036087;28;20186;-71
2023/04/29 12:42:17;;;;;;;7.28;4.43;;;;;;;;;;5038277;28;20610;-70
2023/04/29 12:44:48;;;;;;;5.78;3.92;;;;;;;;;;5038214;28;20637;-76
2023/04/29 12:47:15;;;;;;;5.65;4.50;;;;;;;;;;5032097;28;20245;-72
2023/04/29 12:49:43;;;;;;;5.78;3.95;;;;;;;;;;5034875;28;20715;-72
2023/04/29 12:52:09;;;;;;;5.88;4.32;;;;;;;;;;5038831;28;20192;-72
2023/04/29 12:54:42;;;;;;;6.07;4.57;;;;;;;;;;5041790;28;20197;-72
2023/04/29 12:57:11;;;;;;;6.10;4.03;;;;;;;;;;5041465;28;20193;-71
2023/04/29 12:59:36;;;;;;;6.43;3.92;;;;;;;;;;5040043;28;20201;-71
2023/04/29 13:02:02;;;;;;;8.57;4.40;;;;;;;;;;5041417;28;20207;-70
2023/04/29 13:04:27;;;;;;;6.93;4.28;;;;;;;;;;5038658;28;20189;-70
2023/04/29 13:06:58;;;;;;;8.48;4.50;;;;;;;;;;5030810;28;20202;-70
2023/04/29 13:09:24;;;;;;;7.43;4.63;;;;;;;;;;5036345;28;20213;-70
2023/04/29 13:11:50;;;;;;;7.25;3.90;;;;;;;;;;5038926;28;20200;-71
2023/04/29 13:14:16;;;;;;;5.88;3.67;;;;;;;;;;5038053;28;20645;-71
2023/04/29 13:16:41;;;;;;;6.38;3.67;;;;;;;;;;5041208;28;20239;-70
2023/04/29 13:19:07;;;;;;;5.75;4.00;;;;;;;;;;5040744;28;20200;-71
2023/04/29 13:21:32;;;;;;;7.82;4.43;;;;;;;;;;5040163;28;20193;-71
2023/04/29 13:23:57;;;;;;;5.78;3.33;;;;;;;;;;5034360;28;20224;-70
2023/04/29 13:26:23;;;;;;;6.88;4.40;;;;;;;;;;5037008;28;20292;-73
2023/04/29 13:28:50;;;;;;;8.85;4.63;;;;;;;;;;5041774;28;20233;-70
2023/04/29 13:31:15;;;;;;;6.45;3.97;;;;;;;;;;5045673;28;20263;-70
2023/04/29 13:33:42;;;;;;;8.57;4.05;;;;;;;;;;5044698;28;20193;-70
2023/04/29 13:36:07;;;;;;;6.07;3.55;;;;;;;;;;5033689;28;20193;-70
2023/04/29 13:38:33;;;;;;;4.28;3.35;;;;;;;;;;5042822;28;20243;-70
2023/04/29 13:40:59;;;;;;;5.03;3.75;;;;;;;;;;5044943;28;20185;-70
2023/04/29 13:43:24;;;;;;;7.20;3.60;;;;;;;;;;5044400;28;20614;-70
2023/04/29 13:45:50;;;;;;;6.32;4.05;;;;;;;;;;5046069;28;20817;-70
2023/04/29 13:48:15;;;;;;;5.05;3.35;;;;;;;;;;5029978;28;20200;-70
2023/04/29 13:50:41;;;;;;;4.40;3.40;;;;;;;;;;5036018;28;20198;-71
2023/04/29 13:53:07;;;;;;;5.70;3.60;;;;;;;;;;5033116;28;20272;-69
2023/04/29 13:55:34;;;;;;;5.78;3.15;;;;;;;;;;5041239;28;20189;-70
2023/04/29 13:57:59;;;;;;;4.35;2.83;;;;;;;;;;5039616;28;20721;-70
2023/04/29 14:00:25;;;;;;;3.92;2.75;;;;;;;;;;5027895;28;20235;-73
2023/04/29 14:02:50;;;;;;;5.53;2.92;;;;;;;;;;5034648;28;20660;-69
2023/04/29 14:05:16;;;;;;;8.15;3.72;;;;;;;;;;5043296;28;20677;-70
2023/04/29 14:07:43;;;;;;;4.97;3.28;;;;;;;;;;5035819;28;20667;-77
2023/04/29 14:10:08;;;;;;;5.80;3.10;;;;;;;;;;5049945;28;20218;-71
2023/04/29 14:12:34;;;;;;;7.85;3.25;;;;;;;;;;5038932;28;20197;-70
2023/04/29 14:14:59;;;;;;;8.85;3.30;;;;;;;;;;5041582;28;20276;-70
2023/04/29 14:17:26;;;;;;;5.43;3.22;;;;;;;;;;5040588;28;20645;-71
2023/04/29 14:19:51;;;;;;;4.50;3.20;;;;;;;;;;5045286;28;20520;-70
2023/04/29 14:22:16;;;;;;;7.20;3.90;;;;;;;;;;5030941;28;20608;-71
2023/04/29 14:24:42;;;;;;;8.15;3.90;;;;;;;;;;5034884;28;20200;-70